createdAt,value
2019-02-25T00:01:59.480Z,3.70
2019-02-25T00:07:07.508Z,3.70
2019-02-25T00:12:14.558Z,3.80
2019-02-25T00:17:21.962Z,3.80
2019-02-25T00:22:30.963Z,3.80
2019-02-25T00:27:38.058Z,3.90
2019-02-25T00:32:45.154Z,3.90
2019-02-25T00:37:52.234Z,4.00
2019-02-25T00:42:59.337Z,4.00
2019-02-25T00:48:06.606Z,4.00
2019-02-25T00:53:14.000Z,3.90
2019-02-25T00:58:21.702Z,3.90
2019-02-25T01:03:29.891Z,4.00
2019-02-25T01:08:37.212Z,4.10
2019-02-25T01:13:44.279Z,3.90
2019-02-25T01:18:51.364Z,3.90
2019-02-25T01:23:58.308Z,3.90
2019-02-25T01:29:05.959Z,3.80
2019-02-25T01:34:14.737Z,3.80
2019-02-25T01:39:21.822Z,3.80
2019-02-25T01:44:28.929Z,3.70
2019-02-25T01:49:35.992Z,3.60
2019-02-25T01:54:43.125Z,3.60
2019-02-25T01:59:50.193Z,3.60
2019-02-25T02:04:57.261Z,3.60
2019-02-25T02:10:04.626Z,3.70
2019-02-25T02:15:13.899Z,3.60
2019-02-25T02:20:21.128Z,3.60
2019-02-25T02:25:29.771Z,3.50
2019-02-25T02:30:37.056Z,3.50
2019-02-25T02:35:44.217Z,3.50
2019-02-25T02:40:52.003Z,3.40
2019-02-25T02:46:07.438Z,3.40
2019-02-25T02:51:14.580Z,3.40
2019-02-25T02:56:21.930Z,3.40
2019-02-25T03:01:29.191Z,3.40
2019-02-25T03:06:37.375Z,3.40
2019-02-25T03:11:44.580Z,3.40
2019-02-25T03:16:51.722Z,3.40
2019-02-25T03:21:58.808Z,3.40
2019-02-25T03:27:06.028Z,3.30
2019-02-25T03:32:13.281Z,3.30
2019-02-25T03:37:20.931Z,3.40
2019-02-25T03:42:28.208Z,3.40
2019-02-25T03:47:35.305Z,3.30
2019-02-25T03:52:42.369Z,3.30
2019-02-25T03:57:49.574Z,3.30
2019-02-25T04:02:56.991Z,3.40
2019-02-25T04:08:04.026Z,3.30
2019-02-25T04:13:11.179Z,3.20
2019-02-25T04:18:18.261Z,3.10
2019-02-25T04:23:25.821Z,3.00
2019-02-25T04:28:32.927Z,3.10
2019-02-25T04:33:40.503Z,3.00
2019-02-25T04:38:48.866Z,2.90
2019-02-25T04:43:55.983Z,2.90
2019-02-25T04:49:03.175Z,2.90
2019-02-25T04:54:10.354Z,2.90
2019-02-25T04:59:17.831Z,2.90
2019-02-25T05:04:25.426Z,2.90
2019-02-25T05:09:32.517Z,2.90
2019-02-25T05:14:39.795Z,2.80
2019-02-25T05:19:47.219Z,2.80
2019-02-25T05:24:54.426Z,2.80
2019-02-25T05:30:01.495Z,2.80
2019-02-25T05:35:09.917Z,2.80
2019-02-25T05:40:17.034Z,2.70
2019-02-25T05:45:24.134Z,2.70
2019-02-25T05:50:31.239Z,2.80
2019-02-25T05:55:39.457Z,2.80
2019-02-25T06:00:46.459Z,2.80
2019-02-25T06:05:53.658Z,2.80
2019-02-25T06:11:00.748Z,2.80
2019-02-25T06:16:07.831Z,2.80
2019-02-25T06:21:15.243Z,2.80
2019-02-25T06:26:22.482Z,2.80
2019-02-25T06:31:29.667Z,2.90
2019-02-25T06:36:36.855Z,2.80
2019-02-25T06:41:43.934Z,2.80
2019-02-25T06:46:50.989Z,2.80
2019-02-25T06:51:58.175Z,2.90
2019-02-25T06:57:05.949Z,2.90
2019-02-25T07:02:13.031Z,2.90
2019-02-25T07:07:42.093Z,2.90
2019-02-25T07:13:11.165Z,2.90
2019-02-25T07:18:49.662Z,2.90
2019-02-25T07:24:27.938Z,2.80
2019-02-25T07:29:53.092Z,2.80
2019-02-25T07:35:18.391Z,2.80
2019-02-25T07:40:52.679Z,2.80
2019-02-25T07:46:07.774Z,2.70
2019-02-25T07:51:38.155Z,2.70
2019-02-25T07:57:07.160Z,2.90
2019-02-25T08:02:33.450Z,3.00
2019-02-25T08:07:58.570Z,3.10
2019-02-25T08:13:14.407Z,3.20
2019-02-25T08:18:40.711Z,3.30
2019-02-25T08:24:10.492Z,3.50
2019-02-25T08:29:42.002Z,3.60
2019-02-25T08:35:06.792Z,3.50
2019-02-25T08:41:04.536Z,3.60
2019-02-25T08:46:34.209Z,3.70
2019-02-25T08:51:41.803Z,3.60
2019-02-25T08:56:49.003Z,3.50
2019-02-25T09:01:56.350Z,3.50
2019-02-25T09:07:03.619Z,3.40
2019-02-25T09:12:11.038Z,3.40
2019-02-25T09:17:18.084Z,3.50
2019-02-25T09:22:25.233Z,3.40
2019-02-25T09:27:36.329Z,3.30
2019-02-25T09:32:44.377Z,3.20
2019-02-25T09:37:51.399Z,3.20
2019-02-25T09:42:59.824Z,3.10
2019-02-25T09:48:07.157Z,3.10
2019-02-25T09:53:14.832Z,3.20
2019-02-25T09:58:22.115Z,3.10
2019-02-25T10:03:29.177Z,3.10
2019-02-25T10:08:36.219Z,3.20
2019-02-25T10:13:43.385Z,3.20
2019-02-25T10:18:50.516Z,3.30
2019-02-25T10:23:57.723Z,3.20
2019-02-25T10:29:06.117Z,3.10
2019-02-25T10:34:14.301Z,3.10
2019-02-25T10:39:21.379Z,3.10
2019-02-25T10:44:29.728Z,3.10
2019-02-25T10:49:38.581Z,3.30
2019-02-25T10:54:56.270Z,3.40
2019-02-25T11:00:09.532Z,3.30
2019-02-25T11:05:18.919Z,3.40
2019-02-25T11:10:53.215Z,3.40
2019-02-25T11:16:01.203Z,3.50
2019-02-25T11:21:10.173Z,3.50
2019-02-25T11:26:17.411Z,3.50
2019-02-25T11:31:26.831Z,3.60
2019-02-25T11:36:33.585Z,3.70
2019-02-25T11:41:41.121Z,3.80
2019-02-25T11:46:48.822Z,3.80
2019-02-25T11:51:56.102Z,3.90
2019-02-25T11:57:03.674Z,4.00
2019-02-25T12:02:10.917Z,4.10
2019-02-25T12:07:18.075Z,4.30
2019-02-25T12:12:25.065Z,4.40
2019-02-25T12:17:32.132Z,4.40
2019-02-25T12:22:39.280Z,4.60
2019-02-25T12:27:46.468Z,4.70
2019-02-25T12:32:53.632Z,4.80
2019-02-25T12:38:00.945Z,4.80
2019-02-25T12:43:08.039Z,4.90
2019-02-25T12:48:15.275Z,4.80
2019-02-25T12:53:22.358Z,4.80
2019-02-25T12:58:29.446Z,4.90
2019-02-25T13:03:37.626Z,4.80
2019-02-25T13:08:44.713Z,4.70
2019-02-25T13:13:51.820Z,4.80
2019-02-25T13:18:59.007Z,5.30
2019-02-25T13:24:07.196Z,5.90
2019-02-25T13:29:14.897Z,6.60
2019-02-25T13:34:22.031Z,6.50
2019-02-25T13:39:29.207Z,6.20
2019-02-25T13:44:37.527Z,5.80
2019-02-25T13:49:45.872Z,5.60
2019-02-25T13:54:55.310Z,6.40
2019-02-25T14:00:03.778Z,6.30
2019-02-25T14:05:12.597Z,6.10
2019-02-25T14:10:21.394Z,6.60
2019-02-25T14:15:29.691Z,6.10
2019-02-25T14:20:39.536Z,5.80
2019-02-25T14:25:47.870Z,5.20
2019-02-25T14:30:56.301Z,5.00
2019-02-25T14:36:05.661Z,5.00
2019-02-25T14:41:16.058Z,5.40
2019-02-25T14:46:26.707Z,6.20
2019-02-25T14:51:35.366Z,6.50
2019-02-25T14:56:45.028Z,6.70
2019-02-25T15:01:53.784Z,6.70
2019-02-25T15:07:03.756Z,6.70
2019-02-25T15:12:13.157Z,6.20
2019-02-25T15:17:21.491Z,5.70
2019-02-25T15:22:30.163Z,5.40
2019-02-25T15:27:39.854Z,5.20
2019-02-25T15:32:55.567Z,5.10
2019-02-25T15:38:00.085Z,4.90
2019-02-25T15:43:12.926Z,4.90
2019-02-25T15:48:22.345Z,4.70
2019-02-25T15:53:31.064Z,4.50
2019-02-25T15:58:38.814Z,4.50
2019-02-25T16:03:46.260Z,4.30
2019-02-25T16:08:56.157Z,4.10
2019-02-25T16:14:05.166Z,4.00
2019-02-25T16:19:16.966Z,3.90
2019-02-25T16:24:24.969Z,3.80
2019-02-25T16:29:32.142Z,3.70
2019-02-25T16:34:40.545Z,3.60
2019-02-25T16:39:48.117Z,3.60
2019-02-25T16:44:57.546Z,3.60
2019-02-25T16:50:06.425Z,3.40
2019-02-25T16:55:15.528Z,3.40
2019-02-25T17:00:25.313Z,3.30
2019-02-25T17:05:33.543Z,3.10
2019-02-25T17:10:41.454Z,3.00
2019-02-25T17:15:50.036Z,3.00
2019-02-25T17:20:58.341Z,2.80
2019-02-25T17:26:07.717Z,2.70
2019-02-25T17:31:16.358Z,2.60
2019-02-25T17:36:23.942Z,2.50
2019-02-25T17:41:33.161Z,2.40
2019-02-25T17:46:41.345Z,2.40
2019-02-25T17:51:51.131Z,2.30
2019-02-25T17:56:58.591Z,2.40
2019-02-25T18:02:06.679Z,2.40
2019-02-25T18:07:15.638Z,2.40
2019-02-25T18:12:25.278Z,2.30
2019-02-25T18:17:32.368Z,2.30
2019-02-25T18:22:39.810Z,2.20
2019-02-25T18:27:49.470Z,2.20
2019-02-25T18:32:58.282Z,2.20
2019-02-25T18:38:07.643Z,2.30
2019-02-25T18:43:16.157Z,2.30
2019-02-25T18:48:25.338Z,2.20
2019-02-25T18:53:33.088Z,2.10
2019-02-25T18:58:41.666Z,2.10
2019-02-25T19:03:50.583Z,2.10
2019-02-25T19:08:58.878Z,2.20
2019-02-25T19:14:07.076Z,2.10
2019-02-25T19:19:16.978Z,2.20
2019-02-25T19:24:24.942Z,2.20
2019-02-25T19:29:32.185Z,2.30
2019-02-25T19:34:41.262Z,2.40
2019-02-25T19:39:50.437Z,2.40
2019-02-25T19:44:58.550Z,2.40
2019-02-25T19:50:11.508Z,2.50
2019-02-25T19:55:20.975Z,2.60
2019-02-25T20:00:30.578Z,2.60
2019-02-25T20:05:41.164Z,2.60
2019-02-25T20:10:48.122Z,2.60
2019-02-25T20:15:56.109Z,2.70
2019-02-25T20:21:06.491Z,2.80
2019-02-25T20:26:15.592Z,2.90
2019-02-25T20:31:23.887Z,3.00
2019-02-25T20:36:32.707Z,3.00
2019-02-25T20:41:39.927Z,3.10
2019-02-25T20:47:04.075Z,3.20
2019-02-25T20:52:11.714Z,3.20
2019-02-25T20:57:21.720Z,3.30
2019-02-25T21:02:31.037Z,3.20
2019-02-25T21:07:39.593Z,3.20
2019-02-25T21:12:47.919Z,3.10
2019-02-25T21:17:57.718Z,3.10
2019-02-25T21:23:08.531Z,3.20
2019-02-25T21:28:16.222Z,3.20
2019-02-25T21:33:25.885Z,3.20
2019-02-25T21:38:34.157Z,3.10
2019-02-25T21:43:43.533Z,3.10
2019-02-25T21:48:54.884Z,3.10
2019-02-25T21:54:02.235Z,3.10
2019-02-25T21:59:12.718Z,3.10
2019-02-25T22:04:22.419Z,3.20
2019-02-25T22:09:36.372Z,3.20
2019-02-25T22:14:38.933Z,3.20
2019-02-25T22:19:47.965Z,3.20
2019-02-25T22:24:54.726Z,3.30
2019-02-25T22:30:04.263Z,3.40
2019-02-25T22:35:15.070Z,3.50
2019-02-25T22:40:22.118Z,3.60
2019-02-25T22:45:30.924Z,3.60
2019-02-25T22:50:39.222Z,3.60
2019-02-25T22:55:47.842Z,3.60
2019-02-25T23:00:58.957Z,3.70
2019-02-25T23:06:09.228Z,3.70
2019-02-25T23:11:19.824Z,3.70
2019-02-25T23:16:26.685Z,3.60
2019-02-25T23:21:36.078Z,3.50
2019-02-25T23:26:43.251Z,3.50
2019-02-25T23:31:50.543Z,3.40
2019-02-25T23:36:58.984Z,3.40
2019-02-25T23:42:07.308Z,3.40
2019-02-25T23:47:15.170Z,3.40
2019-02-25T23:52:22.509Z,3.40
2019-02-25T23:57:30.491Z,3.50
